Time;durP1;ratioP1;P1;durP2;ratioP2;P2;SDS_P1;SDS_P2;PMS_P1;PMS_P2;Temp;Humidity;BMP_temperature;BMP_pressure;BME280_temperature;BME280_humidity;BME280_pressure;Samples;Min_cycle;Max_cycle;Signal;HPM_P1;HPM_P2
2022/11/06 00:02:16;;;;;;;4.17;3.87;;;;;;;4.57;100.00;100705.75;5060143;28;20200;-76
2022/11/06 00:04:41;;;;;;;3.93;3.60;;;;;;;4.55;100.00;100707.41;5056637;28;20497;-75
2022/11/06 00:07:07;;;;;;;4.30;3.90;;;;;;;4.54;100.00;100711.69;5061721;28;20355;-75
2022/11/06 00:09:33;;;;;;;4.47;4.07;;;;;;;4.50;100.00;100714.16;5049535;28;20796;-76
2022/11/06 00:11:58;;;;;;;5.07;4.57;;;;;;;4.48;100.00;100718.38;5061559;28;20182;-76
2022/11/06 00:14:24;;;;;;;5.40;4.90;;;;;;;4.40;100.00;100723.31;5058566;28;20194;-76
2022/11/06 00:16:49;;;;;;;5.37;4.87;;;;;;;4.32;100.00;100720.56;5060824;28;20532;-76
2022/11/06 00:19:15;;;;;;;5.30;4.80;;;;;;;4.26;100.00;100729.00;5059538;28;20946;-76
2022/11/06 00:21:40;;;;;;;5.23;4.73;;;;;;;4.23;100.00;100741.72;5054548;28;20206;-76
2022/11/06 00:24:07;;;;;;;5.43;5.03;;;;;;;4.20;100.00;100733.94;5059792;28;20214;-76
2022/11/06 00:26:34;;;;;;;4.77;4.37;;;;;;;4.18;100.00;100734.75;5054785;28;20555;-75
2022/11/06 00:29:00;;;;;;;5.00;4.60;;;;;;;4.15;100.00;100742.34;5058019;28;20204;-74
2022/11/06 00:31:28;;;;;;;4.60;4.20;;;;;;;4.11;100.00;100742.28;5058167;28;20183;-74
2022/11/06 00:33:56;;;;;;;3.90;3.60;;;;;;;4.08;100.00;100737.06;5056811;28;20196;-74
2022/11/06 00:36:23;;;;;;;3.73;3.43;;;;;;;4.06;100.00;100741.31;5065154;28;20196;-77
2022/11/06 00:38:51;;;;;;;4.37;3.97;;;;;;;4.03;100.00;100730.09;5054905;28;20191;-75
2022/11/06 00:41:17;;;;;;;4.47;4.10;;;;;;;4.01;100.00;100731.78;5059783;28;20289;-76
2022/11/06 00:43:52;;;;;;;4.60;4.20;;;;;;;3.99;100.00;100730.88;5056939;28;20196;-76
2022/11/06 00:46:18;;;;;;;4.63;4.23;;;;;;;3.95;100.00;100740.16;5061441;28;20240;-75
2022/11/06 00:48:44;;;;;;;5.33;4.93;;;;;;;3.94;100.00;100748.66;5059152;28;20194;-76
2022/11/06 00:51:15;;;;;;;6.33;5.73;;;;;;;3.88;100.00;100746.81;5056404;28;20284;-76
2022/11/06 00:53:41;;;;;;;5.97;5.43;;;;;;;3.85;100.00;100735.63;5054657;28;20218;-74
2022/11/06 00:56:08;;;;;;;6.27;5.73;;;;;;;3.80;100.00;100746.63;5050858;28;20195;-74
2022/11/06 00:58:34;;;;;;;5.90;5.40;;;;;;;3.77;100.00;100744.00;5065649;28;20276;-75
2022/11/06 01:01:14;;;;;;;5.60;5.10;;;;;;;3.73;100.00;100741.28;5065808;28;20296;-74
2022/11/06 01:03:41;;;;;;;5.70;5.30;;;;;;;3.71;100.00;100742.94;5059351;28;20338;-77
2022/11/06 01:06:09;;;;;;;5.43;4.93;;;;;;;3.70;100.00;100733.56;5064126;28;20194;-75
2022/11/06 01:08:35;;;;;;;6.30;5.80;;;;;;;3.70;100.00;100741.25;5061818;28;20197;-75
2022/11/06 01:11:07;;;;;;;6.63;5.93;;;;;;;3.69;100.00;100726.69;5054153;28;20209;-76
2022/11/06 01:13:33;;;;;;;6.20;5.60;;;;;;;3.68;100.00;100723.25;5057202;28;20194;-75
2022/11/06 01:15:59;;;;;;;6.13;5.53;;;;;;;3.68;100.00;100717.28;5057575;28;20304;-76
2022/11/06 01:18:24;;;;;;;6.20;5.70;;;;;;;3.69;100.00;100712.19;5055144;28;20243;-76
2022/11/06 01:20:50;;;;;;;6.43;5.83;;;;;;;3.70;100.00;100721.59;5068455;28;20210;-76
2022/11/06 01:23:15;;;;;;;6.17;5.67;;;;;;;3.70;100.00;100725.88;5054195;28;20693;-74
2022/11/06 01:25:40;;;;;;;6.40;5.80;;;;;;;3.68;100.00;100725.81;5062099;28;20193;-77
2022/11/06 01:28:06;;;;;;;6.07;5.30;;;;;;;3.66;100.00;100719.78;5062563;28;20198;-76
2022/11/06 01:30:35;;;;;;;6.20;5.30;;;;;;;3.65;100.00;100736.84;5051821;28;20289;-77
2022/11/06 01:33:01;;;;;;;5.93;5.43;;;;;;;3.63;100.00;100723.16;5061026;28;20296;-76
2022/11/06 01:35:26;;;;;;;6.10;5.60;;;;;;;3.63;100.00;100722.28;5058766;28;20262;-75
2022/11/06 01:37:51;;;;;;;6.17;5.63;;;;;;;3.61;100.00;100726.50;5069206;28;20185;-77
2022/11/06 01:40:17;;;;;;;6.53;6.00;;;;;;;3.58;100.00;100723.84;5070341;28;20229;-77
2022/11/06 01:42:42;;;;;;;6.03;5.43;;;;;;;3.51;100.00;100722.81;5065703;28;20233;-75
2022/11/06 01:45:22;;;;;;;5.73;5.23;;;;;;;3.46;100.00;100712.47;5053411;28;20216;-75
2022/11/06 01:47:48;;;;;;;5.43;4.97;;;;;;;3.42;100.00;100704.66;5056158;28;20185;-75
2022/11/06 01:50:15;;;;;;;5.10;4.60;;;;;;;3.35;100.00;100696.81;5054592;28;20997;-76
2022/11/06 01:52:43;;;;;;;5.53;5.03;;;;;;;3.30;100.00;100698.38;5061423;28;20181;-75
2022/11/06 01:55:18;;;;;;;5.70;5.20;;;;;;;3.23;100.00;100696.50;5061124;28;21114;-76
2022/11/06 01:57:45;;;;;;;5.23;4.70;;;;;;;3.18;100.00;100683.53;5062463;28;20236;-77
2022/11/06 02:00:11;;;;;;;5.20;4.73;;;;;;;3.19;100.00;100674.19;5056266;28;20208;-75
2022/11/06 02:02:37;;;;;;;5.20;4.80;;;;;;;3.18;100.00;100677.59;5056720;28;20234;-76
2022/11/06 02:05:03;;;;;;;6.10;5.60;;;;;;;3.16;100.00;100675.00;5058893;28;20218;-73
2022/11/06 02:07:28;;;;;;;5.80;5.20;;;;;;;3.15;100.00;100673.25;5062598;28;20248;-75
2022/11/06 02:09:54;;;;;;;6.23;5.60;;;;;;;3.12;100.00;100655.25;5057109;28;20290;-76
2022/11/06 02:12:42;;;;;;;6.43;5.83;;;;;;;3.09;100.00;100641.53;5058917;28;20185;-74
2022/11/06 02:15:10;;;;;;;5.97;5.47;;;;;;;3.07;100.00;100635.50;5057648;28;20185;-76
2022/11/06 02:18:14;;;;;;;6.30;5.50;;;;;;;3.07;100.00;100636.38;5055552;28;20191;-75
2022/11/06 02:21:23;;;;;;;6.13;5.53;;;;;;;3.07;100.00;100625.28;5064092;28;20213;-74
2022/11/06 02:24:09;;;;;;;6.57;6.00;;;;;;;3.03;100.00;100625.19;5063011;28;20200;-76
2022/11/06 02:26:56;;;;;;;6.67;6.07;;;;;;;3.01;100.00;100613.19;5057865;28;20235;-77
2022/11/06 02:29:44;;;;;;;6.07;5.57;;;;;;;2.98;100.00;100613.13;5053258;28;20263;-74
2022/11/06 02:32:15;;;;;;;6.03;5.43;;;;;;;2.94;100.00;100603.63;5059554;28;20185;-75
2022/11/06 02:34:43;;;;;;;6.00;5.40;;;;;;;2.88;100.00;100594.94;5063648;28;20187;-76
2022/11/06 02:37:16;;;;;;;5.67;5.10;;;;;;;2.86;100.00;100598.28;5065274;28;20333;-75
2022/11/06 02:39:45;;;;;;;5.10;4.60;;;;;;;2.82;100.00;100604.13;5068413;28;20201;-76
2022/11/06 02:42:15;;;;;;;5.30;4.80;;;;;;;2.79;100.00;100607.47;5064014;28;20210;-75
2022/11/06 02:44:42;;;;;;;4.77;4.30;;;;;;;2.76;100.00;100609.09;5063355;28;20621;-75
2022/11/06 02:47:09;;;;;;;4.83;4.43;;;;;;;2.73;100.00;100602.19;5066256;28;20194;-76
2022/11/06 02:49:50;;;;;;;5.13;3.90;;;;;;;2.72;100.00;100611.56;5061705;28;20293;-74
2022/11/06 02:52:28;;;;;;;4.70;4.23;;;;;;;2.70;100.00;100600.41;5064482;28;20191;-75
2022/11/06 02:55:05;;;;;;;4.60;4.20;;;;;;;2.68;100.00;100601.22;5062789;28;20186;-74
2022/11/06 02:57:36;;;;;;;5.40;4.90;;;;;;;2.66;100.00;100606.25;5059162;28;20195;-76
2022/11/06 03:00:06;;;;;;;5.30;4.80;;;;;;;2.63;100.00;100608.75;5059120;28;20202;-73
2022/11/06 03:02:39;;;;;;;6.07;4.93;;;;;;;2.59;100.00;100599.25;5060018;28;20300;-75
2022/11/06 03:05:17;;;;;;;4.67;4.27;;;;;;;2.54;100.00;100600.81;5060825;28;20204;-76
2022/11/06 03:07:58;;;;;;;5.23;4.73;;;;;;;2.51;100.00;100603.25;5067291;28;20271;-76
2022/11/06 03:10:29;;;;;;;5.10;4.60;;;;;;;2.47;100.00;100604.03;5061902;28;20201;-77
2022/11/06 03:13:03;;;;;;;4.93;4.53;;;;;;;2.44;100.00;100592.88;5065537;28;20812;-73
2022/11/06 03:15:46;;;;;;;5.53;5.03;;;;;;;2.45;100.00;100596.28;5066050;28;20192;-75
2022/11/06 03:18:15;;;;;;;6.07;5.47;;;;;;;2.49;100.00;100589.59;5072271;28;20181;-76
2022/11/06 03:20:46;;;;;;;5.90;5.40;;;;;;;2.53;100.00;100594.84;5074342;28;20342;-74
2022/11/06 03:23:27;;;;;;;5.83;5.23;;;;;;;2.59;100.00;100601.81;5073933;28;20560;-77
2022/11/06 03:26:03;;;;;;;6.73;6.07;;;;;;;2.64;100.00;100596.81;5061937;28;20234;-73
2022/11/06 03:28:36;;;;;;;5.83;5.33;;;;;;;2.66;100.00;100590.06;5066666;28;20192;-74
2022/11/06 03:31:06;;;;;;;6.73;6.10;;;;;;;2.66;100.00;100590.06;5061623;28;20214;-75
2022/11/06 03:33:40;;;;;;;6.40;5.90;;;;;;;2.63;100.00;100588.31;5065196;28;20277;-76
2022/11/06 03:36:14;;;;;;;7.37;6.67;;;;;;;2.60;100.00;100580.56;5061230;28;20656;-76
2022/11/06 03:38:45;;;;;;;6.70;6.10;;;;;;;2.54;100.00;100581.25;5058792;28;20191;-76
2022/11/06 03:41:22;;;;;;;6.37;5.77;;;;;;;2.52;100.00;100571.78;5064123;28;20239;-76
2022/11/06 03:43:48;;;;;;;6.13;5.57;;;;;;;2.48;100.00;100565.72;5061868;28;20192;-74
2022/11/06 03:46:23;;;;;;;7.03;6.37;;;;;;;2.46;100.00;100567.38;5062991;28;20235;-76
2022/11/06 03:48:54;;;;;;;6.33;5.73;;;;;;;2.43;100.00;100573.28;5058218;28;20182;-77
2022/11/06 03:51:29;;;;;;;6.80;6.20;;;;;;;2.42;100.00;100563.88;5064762;28;20186;-76
2022/11/06 03:54:20;;;;;;;7.00;6.30;;;;;;;2.46;100.00;100557.16;5057381;28;20182;-76
2022/11/06 03:56:53;;;;;;;6.40;5.90;;;;;;;2.55;100.00;100552.31;5067025;28;20224;-74
2022/11/06 03:59:24;;;;;;;6.70;6.10;;;;;;;2.65;100.00;100555.13;5060623;28;20210;-77
2022/11/06 04:01:54;;;;;;;34.07;8.67;;;;;;;2.72;100.00;100546.81;5064275;28;20300;-75
2022/11/06 04:04:25;;;;;;;7.37;6.63;;;;;;;2.79;100.00;100547.84;5061160;28;20840;-76
2022/11/06 04:07:06;;;;;;;12.80;6.27;;;;;;;2.84;100.00;100533.47;5067870;28;22106;-74
2022/11/06 04:15:10;;;;;;;11.57;6.53;;;;;;;2.85;100.00;100540.31;5055599;28;20925;-77
2022/11/06 04:17:36;;;;;;;6.97;5.40;;;;;;;2.86;100.00;100547.16;5062118;28;20189;-76
2022/11/06 04:20:07;;;;;;;6.23;5.63;;;;;;;2.87;100.00;100542.09;5064208;28;20229;-77
2022/11/06 04:23:00;;;;;;;8.73;6.03;;;;;;;2.93;100.00;100550.75;5066471;28;20211;-77
2022/11/06 04:28:42;;;;;;;6.23;5.60;;;;;;;3.01;100.00;100564.63;5066446;28;20220;-76
2022/11/06 04:31:41;;;;;;;5.57;5.10;;;;;;;3.02;100.00;100567.22;5067215;28;20696;-76
2022/11/06 04:34:12;;;;;;;5.93;5.43;;;;;;;3.00;100.00;100563.75;5062784;28;20599;-77
2022/11/06 04:36:37;;;;;;;5.70;5.20;;;;;;;2.95;100.00;100559.34;5068817;28;20255;-75
2022/11/06 04:39:17;;;;;;;5.47;5.00;;;;;;;2.89;100.00;100570.25;5061421;28;20197;-77
2022/11/06 04:42:00;;;;;;;6.03;5.53;;;;;;;2.80;100.00;100578.53;5058094;28;20579;-75
2022/11/06 04:44:42;;;;;;;6.07;5.57;;;;;;;2.72;100.00;100575.78;5054825;28;20183;-77
2022/11/06 04:47:14;;;;;;;5.33;4.83;;;;;;;2.64;100.00;100584.94;5055813;28;20202;-75
2022/11/06 04:49:41;;;;;;;5.30;4.80;;;;;;;2.55;100.00;100590.66;5060933;28;20327;-74
2022/11/06 04:52:12;;;;;;;5.70;5.20;;;;;;;2.47;100.00;100584.44;5062173;28;20197;-75
2022/11/06 04:54:38;;;;;;;5.13;4.70;;;;;;;2.40;100.00;100591.06;5052970;28;20189;-77
2022/11/06 04:57:03;;;;;;;5.90;5.33;;;;;;;2.34;100.00;100595.13;5060961;28;20190;-77
2022/11/06 04:59:34;;;;;;;5.27;4.77;;;;;;;2.28;100.00;100600.91;5058735;28;20210;-76
2022/11/06 05:01:59;;;;;;;5.60;5.10;;;;;;;2.21;100.00;100596.44;5058348;28;20210;-76
2022/11/06 05:04:24;;;;;;;5.93;5.43;;;;;;;2.14;100.00;100597.94;5061233;28;20246;-76
2022/11/06 05:06:49;;;;;;;5.40;4.90;;;;;;;2.09;100.00;100595.25;5056426;28;20239;-76
2022/11/06 05:09:15;;;;;;;5.97;5.40;;;;;;;2.04;100.00;100593.38;5063068;28;20298;-75
2022/11/06 05:11:41;;;;;;;5.47;5.00;;;;;;;2.02;100.00;100582.25;5063738;28;20705;-76
2022/11/06 05:14:06;;;;;;;5.67;5.17;;;;;;;2.03;100.00;100587.41;5054270;28;20856;-76
2022/11/06 05:16:31;;;;;;;5.60;5.10;;;;;;;2.09;100.00;100579.94;5069128;28;20656;-74
2022/11/06 05:18:57;;;;;;;5.30;4.80;;;;;;;2.16;100.00;100590.34;5061730;28;20720;-77
2022/11/06 05:24:06;;;;;;;5.17;4.77;;;;;;;2.27;100.00;100586.41;5060086;28;20880;-76
2022/11/06 05:26:32;;;;;;;5.53;5.03;;;;;;;2.33;100.00;100593.38;5064069;28;20191;-75
2022/11/06 05:28:57;;;;;;;5.43;4.93;;;;;;;2.38;100.00;100586.72;5056146;28;20183;-77
2022/11/06 05:31:24;;;;;;;5.40;5.00;;;;;;;2.41;100.00;100586.81;5060161;28;20182;-76
2022/11/06 05:33:49;;;;;;;5.20;4.80;;;;;;;2.44;100.00;100586.88;5061016;28;20394;-76
2022/11/06 05:36:15;;;;;;;5.23;4.83;;;;;;;2.47;100.00;100581.88;5056631;28;20190;-76
2022/11/06 05:38:40;;;;;;;5.47;4.97;;;;;;;2.51;100.00;100583.72;5058083;28;20194;-76
2022/11/06 05:41:06;;;;;;;6.00;5.50;;;;;;;2.54;100.00;100565.03;5056585;28;20621;-76
2022/11/06 05:43:31;;;;;;;5.40;4.83;;;;;;;2.56;100.00;100559.16;5064936;28;20671;-77
2022/11/06 05:45:57;;;;;;;6.33;5.53;;;;;;;2.61;100.00;100555.84;5057012;28;20194;-75
2022/11/06 05:48:22;;;;;;;5.93;5.30;;;;;;;2.64;100.00;100561.06;5061377;28;20189;-75
2022/11/06 05:50:48;;;;;;;5.47;4.97;;;;;;;2.67;100.00;100548.38;5064032;28;20300;-75
2022/11/06 05:53:13;;;;;;;5.43;4.93;;;;;;;2.67;100.00;100533.88;5062498;28;20225;-76
2022/11/06 05:55:38;;;;;;;7.33;4.63;;;;;;;2.69;100.00;100522.03;5063462;28;20237;-77
2022/11/06 05:58:04;;;;;;;9.30;5.23;;;;;;;2.72;100.00;100521.25;5057699;28;20654;-76
2022/11/06 06:00:29;;;;;;;4.83;4.37;;;;;;;2.69;100.00;100519.47;5062363;28;20220;-75
2022/11/06 06:02:57;;;;;;;6.37;4.57;;;;;;;2.63;100.00;100521.88;5059794;28;20221;-75
2022/11/06 06:05:22;;;;;;;5.70;5.07;;;;;;;2.51;100.00;100517.28;5060248;28;20198;-76
2022/11/06 06:07:47;;;;;;;4.87;4.47;;;;;;;2.42;100.00;100522.16;5060181;28;20182;-74
2022/11/06 06:10:13;;;;;;;5.27;4.87;;;;;;;2.35;100.00;100505.75;5068902;28;20320;-77
2022/11/06 06:12:38;;;;;;;4.90;4.50;;;;;;;2.28;100.00;100504.72;5055924;28;20281;-76
2022/11/06 06:15:05;;;;;;;5.60;5.10;;;;;;;2.22;100.00;100508.78;5064295;28;20198;-74
2022/11/06 06:17:31;;;;;;;4.83;4.43;;;;;;;2.18;100.00;100499.34;5068168;28;20190;-77
2022/11/06 06:19:56;;;;;;;5.50;5.00;;;;;;;2.18;100.00;100492.53;5064993;28;20213;-75
2022/11/06 06:22:22;;;;;;;4.93;4.53;;;;;;;2.24;100.00;100508.03;5065602;28;20293;-77
2022/11/06 06:24:47;;;;;;;5.17;4.67;;;;;;;2.27;100.00;100497.88;5063486;28;20187;-76
2022/11/06 06:27:12;;;;;;;6.30;4.43;;;;;;;2.28;100.00;100488.53;5070923;28;20182;-77
2022/11/06 06:29:38;;;;;;;5.53;4.53;;;;;;;2.22;100.00;100480.69;5070363;28;20234;-77
2022/11/06 06:32:04;;;;;;;5.07;4.50;;;;;;;2.14;100.00;100472.81;5064308;28;20190;-77
2022/11/06 06:34:29;;;;;;;5.37;4.87;;;;;;;2.05;100.00;100463.22;5063315;28;20186;-76
2022/11/06 06:36:54;;;;;;;4.63;4.13;;;;;;;1.94;100.00;100452.72;5062577;28;20843;-75
2022/11/06 06:39:20;;;;;;;4.60;4.20;;;;;;;1.85;100.00;100449.03;5060230;28;20214;-77
2022/11/06 06:41:46;;;;;;;5.57;4.33;;;;;;;1.75;100.00;100441.06;5065878;28;20230;-76
2022/11/06 06:44:12;;;;;;;7.33;5.13;;;;;;;1.71;100.00;100435.84;5066295;28;20181;-76
2022/11/06 06:46:37;;;;;;;4.77;4.37;;;;;;;1.70;100.00;100434.13;5065132;28;20200;-76
2022/11/06 06:49:03;;;;;;;5.23;4.83;;;;;;;1.74;100.00;100425.75;5064970;28;20194;-74
2022/11/06 06:51:28;;;;;;;4.93;4.50;;;;;;;1.79;100.00;100414.00;5069582;28;20189;-75
2022/11/06 06:53:54;;;;;;;4.93;4.50;;;;;;;1.86;100.00;100405.66;5053341;28;20201;-75
2022/11/06 06:56:19;;;;;;;5.37;4.80;;;;;;;1.93;100.00;100399.94;5060327;28;20206;-74
2022/11/06 06:58:44;;;;;;;5.50;5.00;;;;;;;2.02;100.00;100395.91;5058816;28;20643;-75
2022/11/06 07:01:10;;;;;;;4.80;4.40;;;;;;;2.05;100.00;100393.44;5061446;28;21565;-74
2022/11/06 07:03:37;;;;;;;4.70;4.30;;;;;;;2.06;100.00;100387.50;5066246;28;20580;-76
2022/11/06 07:06:02;;;;;;;4.90;4.40;;;;;;;2.06;100.00;100380.69;5076634;28;20178;-76
2022/11/06 07:08:28;;;;;;;4.50;4.10;;;;;;;2.07;100.00;100377.31;5067755;28;20197;-76
2022/11/06 07:11:08;;;;;;;4.23;3.93;;;;;;;2.10;100.00;100367.19;5061107;28;20229;-77
2022/11/06 07:13:34;;;;;;;5.93;5.43;;;;;;;2.18;100.00;100361.44;5068589;28;20226;-77
2022/11/06 07:16:05;;;;;;;6.10;5.60;;;;;;;2.24;100.00;100351.38;5075587;28;20186;-76
2022/11/06 07:18:31;;;;;;;6.60;6.00;;;;;;;2.33;100.00;100346.53;5067530;28;20244;-76
2022/11/06 07:20:56;;;;;;;6.43;5.23;;;;;;;2.42;100.00;100343.34;5068176;28;20213;-77
2022/11/06 07:23:21;;;;;;;5.20;4.70;;;;;;;2.53;100.00;100338.47;5069134;28;20173;-77
2022/11/06 07:25:53;;;;;;;4.83;4.43;;;;;;;2.68;100.00;100341.41;5068514;28;20256;-74
2022/11/06 07:28:19;;;;;;;5.07;4.57;;;;;;;2.80;100.00;100343.41;5065284;28;21519;-74
2022/11/06 07:30:44;;;;;;;5.03;4.63;;;;;;;2.96;100.00;100334.38;5064902;28;20243;-75
2022/11/06 07:33:10;;;;;;;4.90;4.50;;;;;;;3.10;100.00;100329.59;5060249;28;20192;-77
2022/11/06 07:35:35;;;;;;;5.27;4.87;;;;;;;3.19;100.00;100329.78;5056708;28;20190;-76
2022/11/06 07:38:05;;;;;;;5.27;4.87;;;;;;;3.29;100.00;100330.00;5080056;28;20284;-76
2022/11/06 07:40:35;;;;;;;5.43;4.93;;;;;;;3.34;100.00;100343.72;5067669;28;20658;-77
2022/11/06 07:43:08;;;;;;;5.57;4.70;;;;;;;3.44;100.00;100353.34;5063893;28;20195;-75
2022/11/06 07:45:34;;;;;;;5.20;4.80;;;;;;;3.50;100.00;100356.00;5063438;28;20277;-77
2022/11/06 07:48:00;;;;;;;4.67;4.27;;;;;;;3.57;100.00;100362.13;5066271;28;20209;-76
2022/11/06 07:50:26;;;;;;;4.67;4.27;;;;;;;3.62;100.00;100375.88;5059484;28;20758;-76
2022/11/06 07:52:52;;;;;;;4.57;4.20;;;;;;;3.70;100.00;100385.44;5061467;28;20178;-77
2022/11/06 07:55:17;;;;;;;4.57;3.90;;;;;;;3.78;100.00;100387.28;5056905;28;20554;-75
2022/11/06 07:57:43;;;;;;;4.57;4.17;;;;;;;3.91;100.00;100401.22;5061968;28;20186;-73
2022/11/06 08:00:09;;;;;;;5.00;4.57;;;;;;;4.04;100.00;100401.47;5071482;28;20284;-75
2022/11/06 08:02:34;;;;;;;4.80;4.37;;;;;;;4.19;100.00;100413.72;5058262;28;20207;-76
2022/11/06 08:04:59;;;;;;;4.93;4.53;;;;;;;4.35;100.00;100408.03;5067019;28;20190;-75
2022/11/06 08:07:25;;;;;;;4.97;4.57;;;;;;;4.51;100.00;100432.25;5062563;28;20727;-75
2022/11/06 08:09:50;;;;;;;5.47;5.07;;;;;;;4.64;100.00;100435.00;5060143;28;20205;-76
2022/11/06 08:12:16;;;;;;;6.00;5.50;;;;;;;4.73;100.00;100436.03;5061956;28;20888;-77
2022/11/06 08:14:41;;;;;;;7.70;7.10;;;;;;;4.75;100.00;100430.09;5056109;28;20529;-75
2022/11/06 08:17:06;;;;;;;8.73;8.03;;;;;;;4.70;100.00;100435.97;5057951;28;20614;-76
2022/11/06 08:19:32;;;;;;;7.67;7.07;;;;;;;4.63;100.00;100475.19;5051538;28;20766;-77
2022/11/06 08:21:57;;;;;;;8.13;7.53;;;;;;;4.72;100.00;100492.44;5058996;28;20247;-75
2022/11/06 08:24:23;;;;;;;7.00;6.50;;;;;;;4.78;100.00;100481.41;5055775;28;20282;-77
2022/11/06 08:26:48;;;;;;;7.57;6.90;;;;;;;4.85;100.00;100475.53;5059781;28;20201;-76
2022/11/06 08:29:14;;;;;;;6.90;6.40;;;;;;;4.99;100.00;100486.91;5058669;28;20189;-74
2022/11/06 08:31:40;;;;;;;6.30;5.80;;;;;;;5.16;100.00;100482.06;5057982;28;20188;-75
2022/11/06 08:34:05;;;;;;;6.70;6.20;;;;;;;5.35;100.00;100469.53;5055825;28;20218;-77
2022/11/06 08:36:35;;;;;;;6.20;5.70;;;;;;;5.47;100.00;100477.44;5056645;28;20291;-74
2022/11/06 08:39:00;;;;;;;6.20;5.80;;;;;;;5.54;100.00;100472.38;5055754;28;20186;-74
2022/11/06 08:41:25;;;;;;;5.80;5.37;;;;;;;5.60;100.00;100467.34;5055590;28;20318;-76
2022/11/06 08:43:51;;;;;;;6.03;5.57;;;;;;;5.64;100.00;100464.81;5057062;28;21046;-76
2022/11/06 08:46:17;;;;;;;6.00;5.60;;;;;;;5.70;100.00;100445.22;5062732;28;20762;-75
2022/11/06 08:48:42;;;;;;;4.93;4.53;;;;;;;5.75;100.00;100446.13;5057118;28;20193;-77
2022/11/06 08:51:07;;;;;;;6.17;5.67;;;;;;;5.86;100.00;100436.00;5069679;28;20205;-77
2022/11/06 08:53:33;;;;;;;5.00;4.60;;;;;;;5.88;100.00;100424.91;5065319;28;20245;-75
2022/11/06 08:56:00;;;;;;;6.00;5.50;;;;;;;5.89;100.00;100416.38;5058229;28;20194;-76
2022/11/06 08:58:26;;;;;;;6.27;5.83;;;;;;;5.93;100.00;100395.00;5061760;28;20191;-77
2022/11/06 09:00:51;;;;;;;6.70;6.20;;;;;;;6.06;100.00;100396.03;5054985;28;20639;-75
2022/11/06 09:03:16;;;;;;;6.33;5.83;;;;;;;6.16;100.00;100383.28;5059540;28;20195;-75
2022/11/06 09:05:43;;;;;;;6.50;5.97;;;;;;;6.24;100.00;100379.94;5057719;28;20227;-76
2022/11/06 09:08:10;;;;;;;6.27;5.77;;;;;;;6.33;100.00;100365.47;5062403;28;20298;-75
2022/11/06 09:10:40;;;;;;;7.40;6.80;;;;;;;6.46;100.00;100354.47;5058952;28;20223;-77
2022/11/06 09:13:05;;;;;;;7.27;6.67;;;;;;;6.54;100.00;100347.66;5051278;28;20297;-77
2022/11/06 09:15:31;;;;;;;46.67;40.57;;;;;;;6.62;100.00;100340.00;5053879;28;20273;-77
2022/11/06 09:17:56;;;;;;;19.97;17.97;;;;;;;6.70;100.00;100324.66;5068243;28;20278;-75
2022/11/06 09:20:24;;;;;;;16.50;14.80;;;;;;;6.78;100.00;100327.28;5054521;28;20962;-75
2022/11/06 09:22:49;;;;;;;14.30;12.90;;;;;;;6.83;100.00;100323.88;5055645;28;20331;-76
2022/11/06 09:25:15;;;;;;;11.90;10.90;;;;;;;6.87;100.00;100324.78;5056762;28;20284;-76
2022/11/06 09:27:46;;;;;;;10.10;9.30;;;;;;;6.92;100.00;100320.50;5058768;28;20273;-77
2022/11/06 09:30:13;;;;;;;9.13;8.37;;;;;;;7.03;100.00;100315.44;5060468;28;20262;-76
2022/11/06 09:32:44;;;;;;;7.83;7.20;;;;;;;7.16;100.00;100317.22;5065373;28;20195;-76
2022/11/06 09:35:10;;;;;;;6.40;5.90;;;;;;;7.30;100.00;100309.59;5062069;28;20199;-76
2022/11/06 09:37:35;;;;;;;6.00;5.50;;;;;;;7.38;100.00;100296.75;5058008;28;20199;-76
2022/11/06 09:40:00;;;;;;;9.40;8.70;;;;;;;7.37;100.00;100289.88;5060042;28;20204;-74
2022/11/06 09:42:47;;;;;;;7.90;7.30;;;;;;;7.43;100.00;100289.03;5057492;28;20215;-76
2022/11/06 09:45:23;;;;;;;6.23;5.63;;;;;;;7.45;100.00;100283.03;5056109;28;20194;-76
2022/11/06 09:48:32;;;;;;;8.53;7.83;;;;;;;7.47;100.00;100278.75;5068202;28;20181;-76
2022/11/06 09:51:26;;;;;;;8.47;7.77;;;;;;;7.52;100.00;100277.91;5058365;28;20363;-76
2022/11/06 09:54:21;;;;;;;18.07;16.47;;;;;;;7.47;100.00;100283.06;5059304;28;20188;-76
2022/11/06 09:56:49;;;;;;;19.57;17.73;;;;;;;7.55;100.00;100275.34;5046567;28;20311;-76
2022/11/06 09:59:18;;;;;;;14.97;13.53;;;;;;;7.61;100.00;100265.94;5059756;28;20218;-77
2022/11/06 10:01:47;;;;;;;14.40;13.10;;;;;;;7.65;100.00;100271.06;5056712;28;20214;-75
2022/11/06 10:04:42;;;;;;;9.53;8.73;;;;;;;7.61;100.00;100265.94;5057379;28;20279;-75
2022/11/06 10:07:26;;;;;;;6.83;6.13;;;;;;;7.58;100.00;100254.75;5058565;28;20192;-77
2022/11/06 10:09:51;;;;;;;16.60;15.20;;;;;;;7.60;100.00;100263.34;5053672;28;20233;-76
2022/11/06 10:12:32;;;;;;;11.50;10.50;;;;;;;7.60;100.00;100264.22;5061532;28;20588;-74
2022/11/06 10:15:31;;;;;;;24.17;22.07;;;;;;;7.55;100.00;100250.44;5058656;28;20211;-77
2022/11/06 10:18:15;;;;;;;11.20;10.33;;;;;;;7.53;100.00;100234.13;5061622;28;20226;-77
2022/11/06 10:20:50;;;;;;;8.13;7.53;;;;;;;7.58;100.00;100222.13;5057714;28;20204;-74
2022/11/06 10:23:19;;;;;;;5.50;5.10;;;;;;;7.56;100.00;100213.53;5060737;28;20558;-75
2022/11/06 10:26:08;;;;;;;7.07;6.57;;;;;;;7.67;100.00;100202.38;5057112;28;20190;-73
2022/11/06 10:29:02;;;;;;;10.30;9.40;;;;;;;7.73;100.00;100210.13;5060754;28;20264;-77
2022/11/06 10:31:45;;;;;;;8.17;7.37;;;;;;;7.79;100.00;100215.28;5061988;28;20535;-75
2022/11/06 10:34:20;;;;;;;9.17;8.37;;;;;;;7.81;100.00;100200.69;5074602;28;20189;-76
2022/11/06 10:36:53;;;;;;;5.50;5.07;;;;;;;7.84;100.00;100181.81;5069365;28;20196;-73
2022/11/06 10:39:31;;;;;;;5.70;5.20;;;;;;;7.98;100.00;100174.06;5075010;28;20204;-75
2022/11/06 10:42:01;;;;;;;6.47;5.97;;;;;;;8.12;100.00;100176.66;5073889;28;20212;-74
2022/11/06 10:44:34;;;;;;;5.30;4.80;;;;;;;8.25;100.00;100173.22;5074547;28;20193;-73
2022/11/06 10:47:07;;;;;;;4.90;4.30;;;;;;;8.31;100.00;100162.91;5075638;28;20478;-76
2022/11/06 10:49:44;;;;;;;5.10;4.63;;;;;;;8.34;100.00;100164.59;5077746;28;20201;-74
2022/11/06 10:53:04;;;;;;;4.30;4.00;;;;;;;8.42;100.00;100146.53;5069437;28;20189;-74
2022/11/06 10:55:53;;;;;;;4.20;3.80;;;;;;;8.51;100.00;100154.28;5015543;28;20212;-77
2022/11/06 10:58:22;;;;;;;4.40;3.80;;;;;;;8.51;100.00;100143.94;5068969;28;20189;-77
2022/11/06 11:00:49;;;;;;;4.10;3.63;;;;;;;8.62;100.00;100143.94;5059199;28;20202;-73
2022/11/06 11:03:35;;;;;;;4.50;4.10;;;;;;;8.64;100.00;100149.94;5062112;28;20224;-75
2022/11/06 11:06:03;;;;;;;4.30;4.00;;;;;;;8.69;100.00;100145.63;5071386;28;20189;-76
2022/11/06 11:08:34;;;;;;;4.53;4.13;;;;;;;8.76;100.00;100139.56;5073909;28;20226;-74
2022/11/06 11:11:05;;;;;;;3.90;3.60;;;;;;;8.76;100.00;100129.25;5063720;28;20210;-74
2022/11/06 11:13:32;;;;;;;3.57;3.27;;;;;;;8.85;100.00;100121.47;5063482;28;20196;-74
2022/11/06 11:15:57;;;;;;;3.80;3.50;;;;;;;8.94;100.00;100128.31;5067390;28;20210;-75
2022/11/06 11:18:30;;;;;;;3.63;3.33;;;;;;;8.97;100.00;100120.56;5060642;28;20225;-75
2022/11/06 11:21:17;;;;;;;3.67;3.27;;;;;;;8.95;100.00;100118.84;5058915;28;20213;-77
2022/11/06 11:24:02;;;;;;;4.83;4.10;;;;;;;8.89;100.00;100109.44;5056993;28;20174;-75
2022/11/06 11:26:30;;;;;;;4.67;3.90;;;;;;;8.91;100.00;100099.97;5068116;28;20185;-76
2022/11/06 11:28:58;;;;;;;4.27;3.57;;;;;;;9.08;100.00;100099.84;5062515;28;20194;-76
2022/11/06 11:31:33;;;;;;;3.60;3.30;;;;;;;9.29;100.00;100100.59;5067250;28;20564;-77
2022/11/06 11:34:04;;;;;;;3.73;3.43;;;;;;;9.42;100.00;100084.13;5064860;28;20264;-74
2022/11/06 11:36:48;;;;;;;3.33;2.77;;;;;;;9.58;100.00;100073.69;5057487;28;20929;-76
2022/11/06 11:39:16;;;;;;;3.33;3.03;;;;;;;9.72;100.00;100066.66;5057764;28;20182;-76
2022/11/06 11:41:42;;;;;;;2.93;2.73;;;;;;;9.78;100.00;100052.84;5065853;28;20194;-74
2022/11/06 11:44:10;;;;;;;3.30;3.00;;;;;;;9.83;100.00;100051.03;5064543;28;20930;-75
2022/11/06 11:46:51;;;;;;;3.57;2.90;;;;;;;9.85;100.00;100051.88;5057967;28;20275;-76
2022/11/06 11:49:33;;;;;;;3.77;2.73;;;;;;;9.95;100.00;100047.47;5058635;28;20189;-73
2022/11/06 11:52:15;;;;;;;2.83;2.53;;;;;;;10.04;100.00;100043.94;5057420;28;20269;-78